Time;durP1;ratioP1;P1;durP2;ratioP2;P2;SDS_P1;SDS_P2;PMS_P1;PMS_P2;Temp;Humidity;BMP_temperature;BMP_pressure;BME280_temperature;BME280_humidity;BME280_pressure;Samples;Min_cycle;Max_cycle;Signal;HPM_P1;HPM_P2
2021/05/05 00:00:34;;;;;;;10.77;2.00;;;;;;;;;;5033424;28;20056;-61
2021/05/05 00:03:19;;;;;;;13.52;4.03;;;;;;;;;;5050298;28;20187;-61
2021/05/05 00:06:04;;;;;;;12.48;2.22;;;;;;;;;;5053291;28;20126;-60
2021/05/05 00:08:50;;;;;;;9.45;2.20;;;;;;;;;;5053222;28;20045;-61
2021/05/05 00:11:35;;;;;;;10.73;1.65;;;;;;;;;;5051768;28;20052;-61
2021/05/05 00:14:21;;;;;;;9.65;1.80;;;;;;;;;;5033410;28;20049;-61
2021/05/05 00:17:06;;;;;;;13.27;2.30;;;;;;;;;;5033058;28;20072;-61
2021/05/05 00:19:51;;;;;;;12.23;2.28;;;;;;;;;;5032837;28;20496;-62
2021/05/05 00:22:37;;;;;;;8.93;2.05;;;;;;;;;;5037529;28;20509;-61
2021/05/05 00:25:22;;;;;;;8.32;1.67;;;;;;;;;;5048605;28;20049;-60
2021/05/05 00:28:07;;;;;;;8.35;1.52;;;;;;;;;;5033102;28;20056;-61
2021/05/05 00:30:53;;;;;;;9.30;1.63;;;;;;;;;;5032709;28;20046;-61
2021/05/05 00:33:38;;;;;;;11.75;1.70;;;;;;;;;;5032665;28;20058;-61
2021/05/05 00:36:24;;;;;;;9.90;1.60;;;;;;;;;;5040975;28;20045;-61
2021/05/05 00:39:09;;;;;;;13.45;2.03;;;;;;;;;;5052672;28;20048;-61
2021/05/05 00:41:55;;;;;;;8.52;2.42;;;;;;;;;;5052543;28;20045;-61
2021/05/05 00:44:40;;;;;;;8.43;2.20;;;;;;;;;;5052669;28;20056;-61
2021/05/05 00:47:26;;;;;;;10.73;1.75;;;;;;;;;;5037207;28;20046;-61
2021/05/05 00:50:13;;;;;;;16.33;2.15;;;;;;;;;;5032281;28;20049;-62
2021/05/05 00:52:58;;;;;;;9.55;1.73;;;;;;;;;;5032394;28;20049;-62
2021/05/05 00:55:43;;;;;;;12.25;1.90;;;;;;;;;;5032494;28;20132;-61
2021/05/05 00:58:29;;;;;;;12.55;2.17;;;;;;;;;;5052143;28;20043;-61
2021/05/05 01:01:14;;;;;;;7.13;2.13;;;;;;;;;;5052230;28;20129;-61
2021/05/05 01:03:59;;;;;;;10.45;2.47;;;;;;;;;;5052215;28;20041;-61
2021/05/05 01:06:45;;;;;;;10.77;2.22;;;;;;;;;;5035165;28;20048;-61
2021/05/05 01:09:41;;;;;;;11.75;2.08;;;;;;;;;;5052004;28;20064;-61
2021/05/05 01:12:27;;;;;;;11.85;1.63;;;;;;;;;;5052236;28;20049;-61
2021/05/05 01:15:12;;;;;;;9.00;1.70;;;;;;;;;;5051962;28;20048;-61
2021/05/05 01:17:57;;;;;;;11.00;2.53;;;;;;;;;;5041075;28;20064;-61
2021/05/05 01:20:43;;;;;;;12.50;2.70;;;;;;;;;;5031953;28;20056;-61
2021/05/05 01:23:28;;;;;;;16.60;2.45;;;;;;;;;;5031017;28;20079;-61
2021/05/05 01:26:14;;;;;;;10.73;2.17;;;;;;;;;;5039634;28;20045;-61
2021/05/05 01:29:01;;;;;;;8.55;1.88;;;;;;;;;;5051777;28;20048;-61
2021/05/05 01:31:47;;;;;;;17.30;3.70;;;;;;;;;;5050665;28;20056;-61
2021/05/05 01:34:33;;;;;;;8.35;2.03;;;;;;;;;;5065027;28;20045;-61
2021/05/05 01:37:18;;;;;;;16.55;3.78;;;;;;;;;;5056832;28;20409;-60
2021/05/05 01:40:04;;;;;;;13.82;2.63;;;;;;;;;;5031747;28;20094;-61
2021/05/05 01:42:50;;;;;;;10.15;1.98;;;;;;;;;;5032013;28;20049;-61
2021/05/05 01:45:36;;;;;;;11.80;3.13;;;;;;;;;;5031987;28;20054;-61
2021/05/05 01:48:22;;;;;;;17.38;2.92;;;;;;;;;;5031353;28;20045;-60
2021/05/05 01:51:07;;;;;;;7.75;2.25;;;;;;;;;;5031739;28;20053;-61
2021/05/05 01:53:52;;;;;;;13.23;2.63;;;;;;;;;;5031598;28;20041;-61
2021/05/05 01:56:38;;;;;;;11.48;2.22;;;;;;;;;;5047105;28;20641;-61
2021/05/05 01:59:23;;;;;;;16.58;2.40;;;;;;;;;;5035022;28;20044;-61
2021/05/05 02:02:08;;;;;;;12.25;2.28;;;;;;;;;;5050797;28;20041;-61
2021/05/05 02:04:56;;;;;;;11.73;2.72;;;;;;;;;;5036597;28;20426;-61
2021/05/05 02:07:50;;;;;;;10.32;2.28;;;;;;;;;;5036721;28;20388;-61
2021/05/05 02:10:36;;;;;;;7.05;1.73;;;;;;;;;;5032903;28;20670;-61
2021/05/05 02:13:21;;;;;;;12.95;1.98;;;;;;;;;;5030598;28;20049;-61
2021/05/05 02:16:09;;;;;;;9.82;1.77;;;;;;;;;;5032247;28;20056;-61
2021/05/05 02:19:02;;;;;;;12.10;2.70;;;;;;;;;;5052020;28;20041;-61
2021/05/05 02:21:47;;;;;;;10.77;2.50;;;;;;;;;;5035229;28;20482;-61
2021/05/05 02:24:33;;;;;;;9.38;2.38;;;;;;;;;;5020400;28;20123;-61
2021/05/05 02:27:19;;;;;;;10.80;3.25;;;;;;;;;;5020404;28;20060;-61
2021/05/05 02:30:05;;;;;;;9.10;2.15;;;;;;;;;;5034490;28;20120;-61
2021/05/05 02:33:03;;;;;;;10.30;1.90;;;;;;;;;;5035142;28;20480;-61
2021/05/05 02:35:48;;;;;;;8.32;1.70;;;;;;;;;;5035073;28;20052;-61
2021/05/05 02:38:34;;;;;;;9.95;2.00;;;;;;;;;;5035050;28;20124;-61
2021/05/05 02:41:21;;;;;;;11.18;1.77;;;;;;;;;;5019732;28;20107;-61
2021/05/05 02:44:07;;;;;;;7.93;1.55;;;;;;;;;;5034964;28;20045;-61
2021/05/05 02:46:53;;;;;;;8.45;1.50;;;;;;;;;;5019993;28;20053;-61
2021/05/05 02:49:39;;;;;;;6.28;1.70;;;;;;;;;;5034839;28;20443;-61
2021/05/05 02:52:25;;;;;;;6.95;2.67;;;;;;;;;;5033751;28;20488;-61
2021/05/05 02:55:10;;;;;;;10.68;1.80;;;;;;;;;;5034223;28;20056;-61
2021/05/05 02:57:57;;;;;;;12.45;1.90;;;;;;;;;;5032730;28;20046;-60
2021/05/05 03:00:42;;;;;;;7.95;1.92;;;;;;;;;;5037328;28;20037;-61
2021/05/05 03:03:28;;;;;;;12.80;2.38;;;;;;;;;;5054499;28;20048;-61
2021/05/05 03:06:13;;;;;;;15.88;4.15;;;;;;;;;;5054648;28;20053;-61
2021/05/05 03:08:59;;;;;;;15.32;2.85;;;;;;;;;;5054526;28;20056;-61
2021/05/05 03:11:44;;;;;;;10.82;2.80;;;;;;;;;;5043798;28;20049;-61
2021/05/05 03:14:30;;;;;;;13.38;3.00;;;;;;;;;;5034332;28;20041;-61
2021/05/05 03:17:15;;;;;;;8.65;3.17;;;;;;;;;;5034491;28;20050;-61
2021/05/05 03:20:01;;;;;;;12.95;2.45;;;;;;;;;;5034530;28;20191;-60
2021/05/05 03:22:46;;;;;;;15.85;2.80;;;;;;;;;;5048566;28;20495;-61
2021/05/05 03:25:32;;;;;;;9.70;2.42;;;;;;;;;;5040255;28;20053;-61
2021/05/05 03:28:17;;;;;;;11.52;2.85;;;;;;;;;;5033937;28;20057;-60
2021/05/05 03:31:02;;;;;;;10.18;3.10;;;;;;;;;;5033641;28;20050;-61
2021/05/05 03:33:48;;;;;;;14.93;2.72;;;;;;;;;;5034135;28;20050;-61
2021/05/05 03:36:33;;;;;;;15.15;2.63;;;;;;;;;;5033898;28;20411;-61
2021/05/05 03:39:19;;;;;;;11.80;2.60;;;;;;;;;;5033828;28;20050;-61
2021/05/05 03:42:04;;;;;;;13.15;3.03;;;;;;;;;;5033676;28;20108;-61
2021/05/05 03:44:50;;;;;;;14.73;3.00;;;;;;;;;;5033864;28;20075;-61
2021/05/05 03:47:37;;;;;;;9.50;2.13;;;;;;;;;;5033817;28;20557;-60
2021/05/05 03:50:22;;;;;;;12.25;2.85;;;;;;;;;;5033772;28;20144;-62
2021/05/05 03:53:08;;;;;;;13.05;2.28;;;;;;;;;;5033739;28;20412;-63
2021/05/05 03:55:53;;;;;;;12.70;2.35;;;;;;;;;;5033537;28;20049;-62
2021/05/05 03:58:38;;;;;;;18.20;4.70;;;;;;;;;;5033836;28;20041;-61
2021/05/05 04:01:24;;;;;;;8.93;2.13;;;;;;;;;;5033325;28;20320;-61
2021/05/05 04:04:09;;;;;;;9.05;1.15;;;;;;;;;;5017890;28;20513;-60
2021/05/05 04:06:56;;;;;;;6.38;1.30;;;;;;;;;;5033490;28;20191;-61
2021/05/05 04:09:42;;;;;;;10.10;2.08;;;;;;;;;;5033309;28;20049;-61
2021/05/05 04:12:29;;;;;;;8.32;1.75;;;;;;;;;;5033186;28;20053;-60
2021/05/05 04:15:14;;;;;;;8.55;1.52;;;;;;;;;;5033325;28;20050;-61
2021/05/05 04:17:59;;;;;;;6.90;1.50;;;;;;;;;;5033280;28;20045;-61
2021/05/05 04:20:45;;;;;;;7.80;1.75;;;;;;;;;;5032760;28;20053;-61
2021/05/05 04:23:31;;;;;;;12.82;2.92;;;;;;;;;;5032562;28;20033;-61
2021/05/05 04:26:16;;;;;;;8.32;2.10;;;;;;;;;;5033252;28;20060;-61
2021/05/05 04:29:02;;;;;;;9.32;2.28;;;;;;;;;;5033049;28;20045;-62
2021/05/05 04:31:48;;;;;;;6.78;1.73;;;;;;;;;;5033115;28;20045;-62
2021/05/05 04:34:33;;;;;;;8.98;2.13;;;;;;;;;;5032639;28;20407;-61
2021/05/05 04:37:18;;;;;;;7.78;2.05;;;;;;;;;;5032849;28;20041;-61
2021/05/05 04:40:05;;;;;;;12.25;2.33;;;;;;;;;;5032421;28;20041;-61
2021/05/05 04:42:51;;;;;;;13.45;2.60;;;;;;;;;;5032720;28;20140;-61
2021/05/05 04:45:37;;;;;;;11.30;1.90;;;;;;;;;;5047634;28;20057;-62
2021/05/05 04:48:22;;;;;;;13.32;2.40;;;;;;;;;;5052636;28;20110;-61
2021/05/05 04:51:08;;;;;;;15.50;3.30;;;;;;;;;;5052450;28;20103;-62
2021/05/05 04:53:53;;;;;;;14.77;2.75;;;;;;;;;;5052244;28;20461;-61
2021/05/05 04:56:39;;;;;;;17.88;3.30;;;;;;;;;;5052501;28;20045;-61
2021/05/05 04:59:24;;;;;;;15.20;2.55;;;;;;;;;;5052128;28;20410;-61
2021/05/05 05:02:10;;;;;;;12.85;3.63;;;;;;;;;;5052243;28;20511;-61
2021/05/05 05:04:55;;;;;;;13.18;2.58;;;;;;;;;;5046982;28;20047;-61
2021/05/05 05:07:40;;;;;;;18.35;3.15;;;;;;;;;;5032419;28;20045;-61
2021/05/05 05:10:26;;;;;;;17.55;2.75;;;;;;;;;;5031879;28;20535;-61
2021/05/05 05:13:11;;;;;;;14.38;3.35;;;;;;;;;;5026134;28;20049;-62
2021/05/05 05:15:56;;;;;;;15.52;2.83;;;;;;;;;;5039210;28;20052;-61
2021/05/05 05:18:42;;;;;;;17.83;2.78;;;;;;;;;;5032186;28;20057;-61
2021/05/05 05:21:27;;;;;;;12.98;3.53;;;;;;;;;;5032188;28;20096;-60
2021/05/05 05:24:12;;;;;;;18.73;4.30;;;;;;;;;;5032210;28;20049;-61
2021/05/05 05:26:58;;;;;;;14.63;3.40;;;;;;;;;;5031718;28;20053;-61
2021/05/05 05:29:43;;;;;;;15.52;2.25;;;;;;;;;;5032115;28;20056;-61
2021/05/05 05:32:28;;;;;;;19.70;3.58;;;;;;;;;;5032161;28;20049;-61
2021/05/05 05:35:14;;;;;;;15.57;2.88;;;;;;;;;;5031946;28;20045;-61
2021/05/05 05:37:59;;;;;;;13.90;3.40;;;;;;;;;;5031930;28;20419;-62
2021/05/05 05:40:44;;;;;;;14.63;4.95;;;;;;;;;;5037018;28;20433;-61
2021/05/05 05:43:30;;;;;;;17.42;3.67;;;;;;;;;;5051667;28;20036;-61
2021/05/05 05:46:16;;;;;;;20.40;4.07;;;;;;;;;;5049763;28;20041;-61
2021/05/05 05:49:01;;;;;;;16.73;3.25;;;;;;;;;;5051919;28;20052;-61
2021/05/05 05:51:46;;;;;;;14.98;3.08;;;;;;;;;;5049914;28;20068;-61
2021/05/05 05:54:32;;;;;;;19.80;4.03;;;;;;;;;;5055442;28;20041;-61
2021/05/05 05:57:17;;;;;;;12.98;3.03;;;;;;;;;;5055776;28;20094;-61
2021/05/05 06:00:02;;;;;;;16.17;3.25;;;;;;;;;;5053309;28;20083;-61
2021/05/05 06:02:57;;;;;;;13.30;2.45;;;;;;;;;;5055227;28;20060;-61
2021/05/05 06:05:43;;;;;;;10.85;3.15;;;;;;;;;;5055653;28;20060;-61
2021/05/05 06:08:28;;;;;;;8.85;1.98;;;;;;;;;;5055361;28;20123;-61
2021/05/05 06:11:13;;;;;;;15.05;2.20;;;;;;;;;;5045475;28;20053;-61
2021/05/05 06:13:59;;;;;;;12.88;2.15;;;;;;;;;;5035509;28;20072;-61
2021/05/05 06:16:44;;;;;;;8.57;2.28;;;;;;;;;;5035328;28;20550;-61
2021/05/05 06:19:30;;;;;;;11.50;2.60;;;;;;;;;;5035039;28;20049;-60
2021/05/05 06:22:15;;;;;;;11.73;2.38;;;;;;;;;;5035102;28;20045;-62
2021/05/05 06:25:02;;;;;;;11.15;1.88;;;;;;;;;;5054869;28;20049;-61
2021/05/05 06:27:48;;;;;;;12.65;2.33;;;;;;;;;;5055154;28;20060;-62
2021/05/05 06:30:33;;;;;;;16.15;3.05;;;;;;;;;;5054759;28;20519;-61
2021/05/05 06:33:18;;;;;;;11.40;2.60;;;;;;;;;;5036400;28;20061;-61
2021/05/05 06:36:04;;;;;;;13.15;2.30;;;;;;;;;;5034600;28;20522;-61
2021/05/05 06:38:49;;;;;;;9.98;2.00;;;;;;;;;;5034821;28;20045;-61
2021/05/05 06:41:37;;;;;;;13.77;2.25;;;;;;;;;;5036824;28;20042;-62
2021/05/05 06:44:22;;;;;;;14.32;2.13;;;;;;;;;;5052929;28;20060;-61
2021/05/05 06:47:08;;;;;;;11.38;2.42;;;;;;;;;;5019932;28;20503;-61
2021/05/05 06:49:53;;;;;;;9.73;2.33;;;;;;;;;;5034720;28;20057;-61
2021/05/05 06:52:39;;;;;;;9.73;1.80;;;;;;;;;;5042276;28;20052;-61
2021/05/05 06:55:24;;;;;;;14.18;2.05;;;;;;;;;;5054759;28;20045;-61
2021/05/05 06:58:10;;;;;;;13.18;1.90;;;;;;;;;;5054771;28;20053;-62
2021/05/05 07:00:55;;;;;;;11.52;2.85;;;;;;;;;;5047208;28;20050;-61
2021/05/05 07:03:40;;;;;;;8.30;2.10;;;;;;;;;;5034628;28;20136;-62
2021/05/05 07:06:25;;;;;;;10.38;1.70;;;;;;;;;;5034576;28;20041;-62
2021/05/05 07:09:11;;;;;;;10.98;2.00;;;;;;;;;;5034476;28;20499;-62
2021/05/05 07:11:56;;;;;;;9.88;2.78;;;;;;;;;;5048223;28;20048;-62
2021/05/05 07:14:42;;;;;;;12.82;2.10;;;;;;;;;;5044388;28;20049;-61
2021/05/05 07:17:27;;;;;;;12.40;2.15;;;;;;;;;;5034338;28;20046;-61
2021/05/05 07:20:13;;;;;;;12.82;2.30;;;;;;;;;;5034269;28;20419;-61
2021/05/05 07:22:58;;;;;;;11.77;2.10;;;;;;;;;;5035069;28;20141;-62
2021/05/05 07:25:44;;;;;;;9.02;2.67;;;;;;;;;;5034214;28;20054;-61
2021/05/05 07:28:30;;;;;;;6.28;1.75;;;;;;;;;;5034120;28;20045;-61
2021/05/05 07:31:16;;;;;;;7.85;1.88;;;;;;;;;;5033416;28;20049;-61
2021/05/05 07:34:01;;;;;;;11.43;2.58;;;;;;;;;;5034045;28;20045;-61
2021/05/05 07:36:48;;;;;;;11.57;2.45;;;;;;;;;;5033893;28;20140;-63
2021/05/05 07:43:28;;;;;;;17.20;3.47;;;;;;;;;;5044392;28;20491;-61
2021/05/05 07:48:51;;;;;;;9.40;2.47;;;;;;;;;;5053746;28;20048;-61
2021/05/05 07:51:36;;;;;;;11.18;3.33;;;;;;;;;;5052158;28;20036;-61
2021/05/05 07:54:22;;;;;;;15.27;2.67;;;;;;;;;;5033515;28;20057;-61
2021/05/05 07:57:08;;;;;;;16.85;3.13;;;;;;;;;;5033563;28;20046;-61
2021/05/05 07:59:53;;;;;;;16.73;2.92;;;;;;;;;;5033420;28;20064;-61
2021/05/05 08:02:38;;;;;;;15.35;2.75;;;;;;;;;;5033008;28;20042;-61
2021/05/05 08:05:24;;;;;;;8.27;2.25;;;;;;;;;;5033440;28;20555;-62
2021/05/05 08:08:09;;;;;;;8.30;2.17;;;;;;;;;;5033623;28;20099;-61
2021/05/05 08:10:54;;;;;;;14.52;1.88;;;;;;;;;;5033316;28;20109;-61
2021/05/05 08:13:41;;;;;;;7.28;1.73;;;;;;;;;;5044846;28;20041;-62
2021/05/05 08:16:26;;;;;;;7.88;1.90;;;;;;;;;;5052476;28;20041;-62
2021/05/05 08:19:11;;;;;;;8.77;2.08;;;;;;;;;;5034294;28;20045;-62
2021/05/05 08:21:56;;;;;;;8.35;2.15;;;;;;;;;;5033055;28;20555;-61
2021/05/05 08:24:42;;;;;;;9.32;2.20;;;;;;;;;;5049120;28;20076;-61
2021/05/05 08:27:27;;;;;;;6.57;1.67;;;;;;;;;;5053119;28;20048;-61
2021/05/05 08:30:13;;;;;;;5.30;0.90;;;;;;;;;;5052639;28;20419;-61
2021/05/05 08:32:58;;;;;;;3.50;0.90;;;;;;;;;;5051747;28;20057;-61
2021/05/05 08:35:43;;;;;;;2.83;1.02;;;;;;;;;;5047845;28;20041;-61
2021/05/05 08:38:29;;;;;;;4.72;0.98;;;;;;;;;;5043474;28;20183;-61
2021/05/05 08:41:14;;;;;;;8.40;1.73;;;;;;;;;;5041366;28;20515;-60
2021/05/05 08:43:59;;;;;;;7.45;2.28;;;;;;;;;;5042941;28;20040;-61
2021/05/05 08:46:45;;;;;;;5.95;1.50;;;;;;;;;;5042584;28;20563;-62
2021/05/05 08:49:32;;;;;;;9.23;1.88;;;;;;;;;;5042902;28;20034;-61
2021/05/05 08:52:17;;;;;;;9.63;1.80;;;;;;;;;;5032620;28;20492;-61
2021/05/05 08:55:03;;;;;;;10.20;1.20;;;;;;;;;;5032077;28;20042;-61
2021/05/05 08:57:48;;;;;;;12.90;2.25;;;;;;;;;;5042879;28;20037;-61
2021/05/05 09:00:35;;;;;;;14.02;2.13;;;;;;;;;;5042934;28;20045;-62
2021/05/05 09:03:30;;;;;;;3.97;1.27;;;;;;;;;;5042881;28;20132;-61
2021/05/05 09:06:16;;;;;;;8.43;1.80;;;;;;;;;;5040173;28;20033;-61
2021/05/05 09:09:01;;;;;;;8.48;1.92;;;;;;;;;;5043205;28;20047;-62
2021/05/05 09:11:46;;;;;;;10.48;1.92;;;;;;;;;;5042679;28;20037;-62
2021/05/05 09:14:32;;;;;;;5.18;1.48;;;;;;;;;;5038277;28;20045;-62
2021/05/05 09:17:21;;;;;;;14.52;3.50;;;;;;;;;;5032128;28;20507;-61
2021/05/05 09:20:06;;;;;;;6.97;2.28;;;;;;;;;;5031939;28;20045;-61
2021/05/05 09:22:53;;;;;;;14.23;2.08;;;;;;;;;;5031778;28;20045;-61
2021/05/05 09:25:38;;;;;;;14.48;2.15;;;;;;;;;;5052196;28;20041;-61
2021/05/05 09:28:25;;;;;;;11.38;3.17;;;;;;;;;;5051035;28;20052;-61
2021/05/05 09:31:11;;;;;;;14.13;2.97;;;;;;;;;;5051477;28;20422;-61
2021/05/05 09:33:59;;;;;;;7.50;2.53;;;;;;;;;;5049664;28;20415;-61
2021/05/05 09:37:00;;;;;;;10.73;1.80;;;;;;;;;;5051809;28;20124;-61
2021/05/05 09:39:45;;;;;;;8.57;1.60;;;;;;;;;;5051516;28;20045;-61
2021/05/05 09:42:32;;;;;;;12.80;2.25;;;;;;;;;;5051705;28;20419;-61
2021/05/05 09:45:17;;;;;;;9.63;2.58;;;;;;;;;;5037343;28;20128;-61
2021/05/05 09:48:02;;;;;;;7.57;1.75;;;;;;;;;;5031979;28;20052;-61
2021/05/05 09:50:48;;;;;;;11.30;2.35;;;;;;;;;;5031665;28;20050;-62
2021/05/05 09:53:39;;;;;;;10.38;2.22;;;;;;;;;;5031671;28;20132;-61
2021/05/05 09:56:24;;;;;;;5.38;1.48;;;;;;;;;;5051145;28;20053;-61
2021/05/05 09:59:09;;;;;;;11.07;1.95;;;;;;;;;;5051729;28;20045;-61
2021/05/05 10:02:01;;;;;;;6.55;1.30;;;;;;;;;;5051427;28;20079;-61
2021/05/05 10:05:04;;;;;;;4.75;0.90;;;;;;;;;;5046178;28;20037;-61
2021/05/05 10:07:59;;;;;;;3.97;0.82;;;;;;;;;;5031730;28;20176;-61
2021/05/05 10:10:44;;;;;;;5.47;1.20;;;;;;;;;;5031428;28;20068;-61
2021/05/05 10:13:30;;;;;;;9.18;1.73;;;;;;;;;;5031739;28;20056;-60
2021/05/05 10:16:15;;;;;;;10.05;1.75;;;;;;;;;;5028678;28;20045;-61
2021/05/05 10:19:01;;;;;;;6.82;1.48;;;;;;;;;;5036609;28;20098;-61
2021/05/05 10:21:52;;;;;;;8.98;2.15;;;;;;;;;;5051381;28;20727;-60
2021/05/05 10:24:38;;;;;;;7.20;2.58;;;;;;;;;;5051438;28;20049;-61
2021/05/05 10:27:23;;;;;;;8.20;2.00;;;;;;;;;;5035680;28;20048;-61
2021/05/05 10:30:09;;;;;;;11.40;1.98;;;;;;;;;;5036615;28;20132;-61
2021/05/05 10:32:54;;;;;;;12.43;2.03;;;;;;;;;;5036074;28;20053;-61
2021/05/05 10:35:39;;;;;;;9.50;2.20;;;;;;;;;;5065896;28;20106;-61
2021/05/05 10:38:31;;;;;;;4.93;1.77;;;;;;;;;;5061063;28;20040;-63
2021/05/05 10:41:17;;;;;;;10.65;2.55;;;;;;;;;;5058239;28;20646;-63
2021/05/05 10:44:03;;;;;;;10.35;2.25;;;;;;;;;;5060449;28;20048;-63
2021/05/05 10:46:48;;;;;;;5.90;1.23;;;;;;;;;;5052677;28;20053;-63
2021/05/05 10:49:33;;;;;;;7.28;2.05;;;;;;;;;;5069654;28;20102;-61
2021/05/05 10:52:19;;;;;;;5.28;1.58;;;;;;;;;;5047581;28;20044;-62
2021/05/05 10:55:05;;;;;;;12.77;2.80;;;;;;;;;;5059729;28;20112;-61
2021/05/05 10:58:06;;;;;;;8.27;2.38;;;;;;;;;;5057419;28;20041;-61
2021/05/05 11:00:53;;;;;;;9.82;2.05;;;;;;;;;;5061041;28;20453;-62
2021/05/05 11:03:47;;;;;;;6.55;1.80;;;;;;;;;;5070797;28;20497;-62
2021/05/05 11:06:32;;;;;;;6.35;1.63;;;;;;;;;;5061741;28;20040;-63
2021/05/05 11:09:19;;;;;;;7.88;2.17;;;;;;;;;;5071016;28;20044;-61
2021/05/05 11:12:04;;;;;;;9.27;1.85;;;;;;;;;;5046896;28;20036;-61
2021/05/05 11:14:50;;;;;;;9.13;2.13;;;;;;;;;;5061366;28;20060;-62
2021/05/05 11:17:35;;;;;;;11.57;2.35;;;;;;;;;;5063129;28;20816;-61
2021/05/05 11:20:39;;;;;;;10.88;2.60;;;;;;;;;;5059880;28;20045;-62
2021/05/05 11:23:37;;;;;;;11.02;2.60;;;;;;;;;;5067506;28;20056;-62
2021/05/05 11:26:25;;;;;;;9.75;2.13;;;;;;;;;;5062649;28;20083;-61
2021/05/05 11:29:11;;;;;;;14.10;3.80;;;;;;;;;;5058008;28;20045;-62
2021/05/05 11:31:57;;;;;;;11.48;2.38;;;;;;;;;;5050185;28;20037;-61
2021/05/05 11:34:44;;;;;;;9.18;1.92;;;;;;;;;;5062073;28;20040;-62
2021/05/05 11:37:29;;;;;;;10.18;2.58;;;;;;;;;;5070021;28;20513;-62
2021/05/05 11:40:14;;;;;;;11.32;2.83;;;;;;;;;;5045740;28;20500;-61
2021/05/05 11:43:00;;;;;;;7.72;2.47;;;;;;;;;;5068765;28;20041;-61
2021/05/05 11:45:58;;;;;;;13.95;3.38;;;;;;;;;;5040894;28;20040;-61
2021/05/05 11:48:44;;;;;;;15.40;3.17;;;;;;;;;;5061403;28;20077;-62
2021/05/05 11:51:29;;;;;;;13.50;3.35;;;;;;;;;;5067145;28;20052;-61
2021/05/05 11:54:15;;;;;;;15.20;3.58;;;;;;;;;;5055607;28;20048;-63
2021/05/05 11:57:04;;;;;;;12.95;3.00;;;;;;;;;;5054190;28;20152;-62
2021/05/05 11:59:49;;;;;;;10.70;2.55;;;;;;;;;;5041640;28;20040;-63
2021/05/05 12:02:34;;;;;;;10.00;3.20;;;;;;;;;;5063546;28;20048;-61
2021/05/05 12:05:29;;;;;;;10.60;2.92;;;;;;;;;;5029772;28;20045;-64
2021/05/05 12:08:15;;;;;;;12.93;3.17;;;;;;;;;;5045415;28;20053;-63
2021/05/05 12:11:00;;;;;;;11.02;2.85;;;;;;;;;;5043768;28;20124;-63
2021/05/05 12:13:46;;;;;;;11.10;2.30;;;;;;;;;;5041405;28;20045;-64
2021/05/05 12:16:36;;;;;;;10.98;2.45;;;;;;;;;;5045349;28;20041;-64
2021/05/05 12:19:21;;;;;;;9.48;2.20;;;;;;;;;;5043393;28;20459;-62
2021/05/05 12:22:13;;;;;;;11.15;2.70;;;;;;;;;;5019826;28;20045;-62
2021/05/05 12:25:08;;;;;;;10.60;2.97;;;;;;;;;;5033746;28;20101;-63
2021/05/05 12:27:57;;;;;;;11.60;2.88;;;;;;;;;;5034720;28;20124;-63
2021/05/05 12:30:52;;;;;;;9.43;2.40;;;;;;;;;;5034068;28;20041;-64
2021/05/05 12:33:39;;;;;;;11.63;2.92;;;;;;;;;;5034047;28;20081;-63
2021/05/05 12:36:25;;;;;;;15.88;3.28;;;;;;;;;;5034369;28;20057;-63
2021/05/05 12:39:16;;;;;;;11.70;3.40;;;;;;;;;;5034205;28;20619;-64
2021/05/05 12:42:01;;;;;;;15.98;3.92;;;;;;;;;;5032870;28;20083;-62
2021/05/05 12:44:46;;;;;;;15.10;3.13;;;;;;;;;;5030566;28;20049;-62
2021/05/05 12:47:31;;;;;;;14.48;3.17;;;;;;;;;;5037614;28;20064;-62
2021/05/05 12:50:16;;;;;;;15.95;3.33;;;;;;;;;;5051997;28;20127;-62
2021/05/05 12:53:04;;;;;;;13.43;2.53;;;;;;;;;;5052119;28;20072;-62
2021/05/05 12:55:56;;;;;;;13.43;3.60;;;;;;;;;;5032194;28;20037;-62
2021/05/05 12:58:45;;;;;;;13.85;3.10;;;;;;;;;;5032285;28;20510;-62
2021/05/05 13:01:31;;;;;;;10.63;2.50;;;;;;;;;;5031682;28;20563;-62
2021/05/05 13:04:19;;;;;;;12.82;3.25;;;;;;;;;;5035358;28;20399;-62
2021/05/05 13:07:04;;;;;;;12.68;3.03;;;;;;;;;;5050760;28;20522;-61
2021/05/05 13:10:02;;;;;;;14.98;2.95;;;;;;;;;;5051663;28;20128;-62
2021/05/05 13:13:09;;;;;;;12.88;3.05;;;;;;;;;;5051970;28;20053;-62
2021/05/05 13:16:18;;;;;;;15.77;2.78;;;;;;;;;;5036324;28;20144;-62
2021/05/05 13:19:50;;;;;;;13.25;2.53;;;;;;;;;;5031993;28;20049;-61
2021/05/05 13:31:50;;;;;;;12.82;2.83;;;;;;;;;;5051816;28;20426;-62
2021/05/05 13:34:36;;;;;;;13.38;2.60;;;;;;;;;;5051650;28;20411;-61
2021/05/05 13:37:21;;;;;;;13.90;2.67;;;;;;;;;;5051723;28;20049;-61
2021/05/05 13:40:06;;;;;;;9.93;2.40;;;;;;;;;;5036794;28;20041;-62
2021/05/05 13:42:52;;;;;;;13.27;3.15;;;;;;;;;;5031611;28;20450;-61
2021/05/05 13:45:40;;;;;;;15.90;2.65;;;;;;;;;;5034714;28;20836;-62
2021/05/05 13:48:37;;;;;;;14.43;3.55;;;;;;;;;;5051620;28;20124;-61
2021/05/05 13:51:22;;;;;;;19.83;3.78;;;;;;;;;;5051201;28;20515;-62
2021/05/05 13:54:08;;;;;;;7.68;2.05;;;;;;;;;;5051296;28;20052;-62
2021/05/05 13:56:54;;;;;;;14.90;3.17;;;;;;;;;;5039379;28;20057;-61
2021/05/05 13:59:41;;;;;;;10.18;1.70;;;;;;;;;;5031350;28;20057;-62
2021/05/05 14:02:26;;;;;;;8.48;2.42;;;;;;;;;;5031550;28;20046;-62
2021/05/05 14:05:13;;;;;;;11.10;2.53;;;;;;;;;;5031553;28;20049;-62
2021/05/05 14:07:58;;;;;;;14.93;2.40;;;;;;;;;;5031143;28;20049;-62
2021/05/05 14:10:44;;;;;;;6.85;2.08;;;;;;;;;;5031417;28;20438;-62
2021/05/05 14:13:29;;;;;;;13.18;2.13;;;;;;;;;;5032267;28;20060;-63
2021/05/05 14:16:15;;;;;;;17.48;3.08;;;;;;;;;;5036238;28;20049;-64
2021/05/05 14:19:02;;;;;;;10.70;2.25;;;;;;;;;;5035692;28;20049;-64
2021/05/05 14:21:47;;;;;;;8.82;2.55;;;;;;;;;;5056034;28;20045;-61
2021/05/05 14:24:32;;;;;;;8.07;2.20;;;;;;;;;;5055115;28;20502;-62
2021/05/05 14:27:18;;;;;;;9.07;2.78;;;;;;;;;;5048328;28;20053;-62
2021/05/05 14:30:04;;;;;;;10.10;2.28;;;;;;;;;;5035062;28;20144;-63
2021/05/05 14:32:49;;;;;;;7.85;2.45;;;;;;;;;;5035797;28;20045;-63
2021/05/05 14:35:36;;;;;;;9.00;2.35;;;;;;;;;;5035772;28;20494;-62
2021/05/05 14:38:22;;;;;;;7.70;2.08;;;;;;;;;;5036078;28;20045;-62
2021/05/05 14:41:28;;;;;;;4.25;1.65;;;;;;;;;;5034765;28;20041;-61
2021/05/05 14:44:19;;;;;;;10.90;2.95;;;;;;;;;;5034993;28;20045;-61
2021/05/05 14:50:09;;;;;;;9.02;2.33;;;;;;;;;;5034219;28;20080;-62
2021/05/05 14:52:54;;;;;;;16.60;3.60;;;;;;;;;;5062627;28;20048;-61
2021/05/05 14:55:39;;;;;;;18.00;2.75;;;;;;;;;;5059555;28;20083;-63
2021/05/05 14:58:31;;;;;;;14.90;2.60;;;;;;;;;;5028694;28;20052;-64
2021/05/05 15:01:17;;;;;;;17.60;3.85;;;;;;;;;;5051816;28;20049;-63
2021/05/05 15:04:02;;;;;;;12.32;2.65;;;;;;;;;;5069263;28;20127;-62
2021/05/05 15:06:48;;;;;;;10.88;2.88;;;;;;;;;;5062353;28;20055;-62
2021/05/05 15:12:40;;;;;;;11.35;2.53;;;;;;;;;;5043703;28;20040;-61
2021/05/05 15:36:23;;;;;;;7.25;1.70;;;;;;;;;;5028440;28;20427;-62
2021/05/05 15:39:19;;;;;;;7.50;2.05;;;;;;;;;;5061828;28;20558;-63
2021/05/05 15:42:05;;;;;;;8.80;2.15;;;;;;;;;;5070143;28;20048;-63
2021/05/05 15:44:55;;;;;;;10.20;2.58;;;;;;;;;;5063306;28;20461;-63
2021/05/05 15:47:40;;;;;;;9.75;1.92;;;;;;;;;;5059454;28;20403;-63
2021/05/05 15:50:28;;;;;;;10.85;2.40;;;;;;;;;;5044344;28;20045;-63
2021/05/05 15:53:21;;;;;;;13.57;2.35;;;;;;;;;;5062265;28;20066;-62
2021/05/05 15:56:11;;;;;;;12.15;2.22;;;;;;;;;;5073526;22;20510;-64
2021/05/05 15:59:11;;;;;;;10.93;2.20;;;;;;;;;;5064438;28;20053;-63
2021/05/05 16:11:38;;;;;;;9.68;2.20;;;;;;;;;;5046999;28;20048;-64
2021/05/05 16:14:11;;;;;;;8.43;2.00;;;;;;;;;;5051433;28;20426;-63
2021/05/05 16:16:57;;;;;;;11.00;2.92;;;;;;;;;;5049660;28;20132;-64
2021/05/05 16:19:56;;;;;;;10.18;2.40;;;;;;;;;;5048122;28;20045;-64
2021/05/05 16:22:52;;;;;;;9.02;2.33;;;;;;;;;;5050300;28;20041;-63
2021/05/05 16:25:56;;;;;;;17.65;3.45;;;;;;;;;;5051808;28;20092;-64
2021/05/05 16:29:33;;;;;;;12.35;1.88;;;;;;;;;;5046077;28;21040;-64
2021/05/05 16:44:15;;;;;;;11.38;2.40;;;;;;;;;;5050922;28;20135;-64
2021/05/05 16:56:01;;;;;;;11.65;2.47;;;;;;;;;;5054494;28;20045;-62
2021/05/05 17:10:24;;;;;;;7.50;2.13;;;;;;;;;;5030338;28;20492;-62
2021/05/05 17:13:10;;;;;;;9.27;2.63;;;;;;;;;;5038527;28;20041;-62
2021/05/05 17:15:58;;;;;;;9.23;1.70;;;;;;;;;;5065190;28;20056;-64
2021/05/05 17:18:56;;;;;;;9.50;2.05;;;;;;;;;;5052041;28;20049;-64
2021/05/05 17:21:43;;;;;;;9.27;1.55;;;;;;;;;;5053847;28;20041;-61
2021/05/05 17:24:49;;;;;;;11.70;2.33;;;;;;;;;;5052378;28;20044;-64
2021/05/05 17:27:43;;;;;;;6.00;2.13;;;;;;;;;;5053313;28;20045;-63
2021/05/05 17:49:28;;;;;;;10.27;2.03;;;;;;;;;;5054156;28;20048;-64
2021/05/05 18:19:28;;;;;;;9.55;1.98;;;;;;;;;;5043489;28;20419;-64
2021/05/05 18:22:20;;;;;;;16.77;2.38;;;;;;;;;;5050259;28;20041;-64
2021/05/05 18:28:01;;;;;;;15.40;2.35;;;;;;;;;;5054413;28;20287;-65
2021/05/05 18:30:48;;;;;;;14.63;2.67;;;;;;;;;;5047225;28;20048;-61
2021/05/05 18:33:33;;;;;;;16.77;2.55;;;;;;;;;;5053249;28;20056;-63
2021/05/05 18:36:20;;;;;;;13.90;2.40;;;;;;;;;;5053257;28;20045;-61
2021/05/05 18:39:12;;;;;;;13.20;2.85;;;;;;;;;;5051614;28;20049;-61
2021/05/05 18:42:04;;;;;;;11.98;2.22;;;;;;;;;;5052790;28;20049;-63
2021/05/05 19:06:46;;;;;;;10.85;2.88;;;;;;;;;;5052838;28;20499;-62
2021/05/05 19:10:52;;;;;;;9.55;2.58;;;;;;;;;;5052281;28;20049;-63